createdAt,value
2023-04-07T00:01:12.625Z,100.00
2023-04-07T00:03:41.569Z,100.00
2023-04-07T00:06:09.087Z,100.00
2023-04-07T00:08:36.349Z,100.00
2023-04-07T00:11:03.710Z,100.00
2023-04-07T00:13:31.287Z,100.00
2023-04-07T00:15:58.800Z,100.00
2023-04-07T00:18:26.246Z,100.00
2023-04-07T00:20:53.463Z,100.00
2023-04-07T00:23:20.975Z,100.00
2023-04-07T00:25:49.129Z,100.00
2023-04-07T00:28:16.499Z,100.00
2023-04-07T00:30:43.840Z,100.00
2023-04-07T00:33:11.298Z,100.00
2023-04-07T00:35:38.765Z,100.00
2023-04-07T00:38:06.162Z,100.00
2023-04-07T00:40:35.019Z,100.00
2023-04-07T00:43:02.253Z,100.00
2023-04-07T00:45:29.569Z,100.00
2023-04-07T00:47:59.125Z,100.00
2023-04-07T00:50:27.139Z,100.00
2023-04-07T00:52:57.010Z,100.00
2023-04-07T00:55:24.574Z,100.00
2023-04-07T00:57:51.912Z,100.00
2023-04-07T01:00:19.945Z,100.00
2023-04-07T01:03:18.420Z,100.00
2023-04-07T01:05:57.348Z,100.00
2023-04-07T01:08:42.850Z,100.00
2023-04-07T01:11:27.272Z,100.00
2023-04-07T01:13:59.202Z,100.00
2023-04-07T01:16:49.749Z,100.00
2023-04-07T01:19:39.941Z,100.00
2023-04-07T01:22:14.232Z,100.00
2023-04-07T01:24:50.905Z,100.00
2023-04-07T01:27:47.336Z,100.00
2023-04-07T01:30:16.960Z,100.00
2023-04-07T01:32:50.549Z,100.00
2023-04-07T01:35:20.159Z,100.00
2023-04-07T01:37:50.603Z,100.00
2023-04-07T01:40:18.988Z,100.00
2023-04-07T01:42:48.204Z,100.00
2023-04-07T01:45:17.234Z,100.00
2023-04-07T01:47:45.887Z,100.00
2023-04-07T01:50:14.239Z,100.00
2023-04-07T01:52:43.260Z,100.00
2023-04-07T01:55:11.234Z,100.00
2023-04-07T01:57:46.914Z,100.00
2023-04-07T02:00:18.258Z,100.00
2023-04-07T02:02:55.885Z,100.00
2023-04-07T02:05:24.163Z,100.00
2023-04-07T02:08:00.181Z,100.00
2023-04-07T02:10:29.521Z,100.00
2023-04-07T02:13:02.058Z,100.00
2023-04-07T02:15:32.227Z,100.00
2023-04-07T02:18:01.356Z,100.00
2023-04-07T02:20:29.764Z,100.00
2023-04-07T02:22:57.581Z,100.00
2023-04-07T02:25:27.369Z,100.00
2023-04-07T02:27:56.644Z,100.00
2023-04-07T02:30:24.321Z,100.00
2023-04-07T02:32:52.606Z,100.00
2023-04-07T02:35:21.220Z,100.00
2023-04-07T02:37:49.452Z,100.00
2023-04-07T02:40:17.197Z,100.00
2023-04-07T02:42:45.426Z,100.00
2023-04-07T02:45:12.743Z,100.00
2023-04-07T02:47:40.514Z,100.00
2023-04-07T02:50:08.238Z,100.00
2023-04-07T02:52:36.622Z,100.00
2023-04-07T02:55:11.669Z,100.00
2023-04-07T02:57:39.592Z,100.00
2023-04-07T03:00:12.505Z,100.00
2023-04-07T03:03:02.715Z,100.00
2023-04-07T03:05:34.111Z,100.00
2023-04-07T03:08:03.276Z,100.00
2023-04-07T03:10:31.056Z,100.00
2023-04-07T03:12:58.720Z,100.00
2023-04-07T03:15:26.687Z,100.00
2023-04-07T03:17:54.124Z,100.00
2023-04-07T03:20:21.559Z,100.00
2023-04-07T03:22:48.847Z,100.00
2023-04-07T03:25:22.938Z,100.00
2023-04-07T03:27:51.743Z,100.00
2023-04-07T03:30:19.646Z,100.00
2023-04-07T03:32:47.630Z,100.00
2023-04-07T03:35:15.193Z,100.00
2023-04-07T03:37:44.979Z,100.00
2023-04-07T03:40:16.802Z,100.00
2023-04-07T03:42:46.852Z,100.00
2023-04-07T03:45:15.821Z,100.00
2023-04-07T03:47:47.630Z,100.00
2023-04-07T03:50:16.384Z,100.00
2023-04-07T03:53:06.459Z,100.00
2023-04-07T03:55:35.124Z,100.00
2023-04-07T03:58:10.535Z,100.00
2023-04-07T04:00:38.593Z,100.00
2023-04-07T04:03:10.237Z,100.00
2023-04-07T04:05:44.945Z,100.00
2023-04-07T04:08:17.748Z,100.00
2023-04-07T04:10:45.678Z,100.00
2023-04-07T04:13:13.281Z,100.00
2023-04-07T04:15:42.204Z,100.00
2023-04-07T04:18:14.662Z,100.00
2023-04-07T04:20:43.271Z,100.00
2023-04-07T04:23:10.918Z,100.00
2023-04-07T04:25:39.787Z,100.00
2023-04-07T04:28:10.707Z,100.00
2023-04-07T04:30:38.294Z,100.00
2023-04-07T04:33:05.889Z,100.00
2023-04-07T04:35:42.607Z,100.00
2023-04-07T04:38:16.639Z,100.00
2023-04-07T04:40:50.488Z,100.00
2023-04-07T04:43:21.207Z,100.00
2023-04-07T04:45:48.495Z,100.00
2023-04-07T04:48:17.461Z,100.00
2023-04-07T04:50:45.348Z,100.00
2023-04-07T04:53:14.172Z,100.00
2023-04-07T04:55:58.036Z,100.00
2023-04-07T04:58:36.059Z,100.00
2023-04-07T05:01:03.470Z,100.00
2023-04-07T05:03:37.862Z,100.00
2023-04-07T05:06:12.621Z,100.00
2023-04-07T05:08:42.644Z,100.00
2023-04-07T05:11:11.819Z,100.00
2023-04-07T05:13:39.621Z,100.00
2023-04-07T05:16:09.637Z,100.00
2023-04-07T05:18:37.100Z,100.00
2023-04-07T05:21:06.427Z,100.00
2023-04-07T05:23:36.506Z,100.00
2023-04-07T05:26:05.852Z,100.00
2023-04-07T05:28:33.422Z,100.00
2023-04-07T05:31:07.554Z,100.00
2023-04-07T05:33:36.193Z,100.00
2023-04-07T05:36:04.431Z,100.00
2023-04-07T05:38:33.340Z,100.00
2023-04-07T05:41:12.470Z,100.00
2023-04-07T05:43:41.693Z,100.00
2023-04-07T05:46:09.592Z,100.00
2023-04-07T05:48:46.614Z,100.00
2023-04-07T05:51:15.732Z,100.00
2023-04-07T05:53:43.929Z,100.00
2023-04-07T05:56:11.509Z,100.00
2023-04-07T05:58:44.126Z,100.00
2023-04-07T06:01:12.871Z,100.00
2023-04-07T06:03:41.361Z,100.00
2023-04-07T06:06:23.819Z,100.00
2023-04-07T06:08:51.274Z,100.00
2023-04-07T06:11:19.230Z,100.00
2023-04-07T06:13:46.998Z,100.00
2023-04-07T06:16:15.212Z,100.00
2023-04-07T06:18:43.223Z,100.00
2023-04-07T06:21:11.003Z,100.00
2023-04-07T06:23:38.658Z,100.00
2023-04-07T06:26:11.665Z,100.00
2023-04-07T06:28:39.473Z,100.00
2023-04-07T06:31:09.602Z,100.00
2023-04-07T06:33:38.261Z,100.00
2023-04-07T06:36:05.784Z,100.00
2023-04-07T06:38:33.154Z,100.00
2023-04-07T06:41:00.466Z,100.00
2023-04-07T06:43:27.844Z,100.00
2023-04-07T06:46:00.829Z,100.00
2023-04-07T06:48:28.206Z,100.00
2023-04-07T06:50:55.457Z,100.00
2023-04-07T06:53:22.849Z,100.00
2023-04-07T06:59:50.804Z,100.00
2023-04-07T07:02:18.557Z,100.00
2023-04-07T07:04:46.134Z,100.00
2023-04-07T07:07:13.475Z,100.00
2023-04-07T07:09:40.936Z,100.00
2023-04-07T07:12:08.150Z,100.00
2023-04-07T07:14:35.620Z,100.00
2023-04-07T07:17:02.885Z,100.00
2023-04-07T07:19:30.472Z,100.00
2023-04-07T07:21:57.701Z,100.00
2023-04-07T07:24:25.027Z,100.00
2023-04-07T07:26:52.335Z,100.00
2023-04-07T07:29:20.583Z,100.00
2023-04-07T07:31:49.441Z,100.00
2023-04-07T07:34:16.760Z,100.00
2023-04-07T07:36:44.029Z,100.00
2023-04-07T07:39:11.421Z,100.00
2023-04-07T07:41:38.791Z,100.00
2023-04-07T07:44:06.229Z,100.00
2023-04-07T07:46:33.680Z,100.00
2023-04-07T07:49:00.986Z,100.00
2023-04-07T07:51:28.356Z,100.00
2023-04-07T07:53:56.143Z,100.00
2023-04-07T07:56:24.118Z,100.00
2023-04-07T07:58:51.353Z,100.00
2023-04-07T08:01:18.740Z,100.00
2023-04-07T08:03:46.315Z,100.00
2023-04-07T08:06:14.013Z,100.00
2023-04-07T08:08:41.228Z,100.00
2023-04-07T08:11:09.049Z,100.00
2023-04-07T08:13:36.702Z,100.00
2023-04-07T08:16:04.206Z,100.00
2023-04-07T08:18:31.543Z,100.00
2023-04-07T08:20:58.920Z,100.00
2023-04-07T08:23:26.263Z,100.00
2023-04-07T08:25:53.654Z,100.00
2023-04-07T08:28:21.977Z,100.00
2023-04-07T08:30:49.269Z,100.00
2023-04-07T08:33:16.696Z,100.00
2023-04-07T08:35:44.182Z,100.00
2023-04-07T08:38:11.867Z,100.00
2023-04-07T08:40:39.581Z,100.00
2023-04-07T08:43:10.166Z,100.00
2023-04-07T08:45:40.760Z,100.00
2023-04-07T08:48:18.166Z,100.00
2023-04-07T08:50:46.459Z,100.00
2023-04-07T08:53:16.078Z,100.00
2023-04-07T08:55:43.387Z,100.00
2023-04-07T08:58:13.667Z,100.00
2023-04-07T09:00:45.954Z,100.00
2023-04-07T09:03:13.802Z,100.00
2023-04-07T09:05:41.582Z,100.00
2023-04-07T09:08:09.977Z,100.00
2023-04-07T09:10:37.613Z,100.00
2023-04-07T09:13:04.962Z,100.00
2023-04-07T09:15:32.630Z,100.00
2023-04-07T09:17:59.895Z,100.00
2023-04-07T09:20:27.443Z,100.00
2023-04-07T09:22:54.865Z,100.00
2023-04-07T09:25:28.127Z,100.00
2023-04-07T09:28:03.468Z,100.00
2023-04-07T09:30:33.719Z,100.00
2023-04-07T09:33:02.207Z,100.00
2023-04-07T09:35:30.148Z,100.00
2023-04-07T09:38:08.760Z,100.00
2023-04-07T09:40:37.665Z,100.00
2023-04-07T09:43:06.621Z,100.00
2023-04-07T09:45:36.599Z,100.00
2023-04-07T09:48:09.277Z,100.00
2023-04-07T09:50:41.584Z,100.00
2023-04-07T09:53:08.988Z,100.00
2023-04-07T09:55:37.713Z,100.00
2023-04-07T09:58:06.587Z,100.00
2023-04-07T10:00:35.676Z,100.00
2023-04-07T10:03:04.638Z,100.00
2023-04-07T10:05:33.397Z,100.00
2023-04-07T10:08:03.545Z,100.00
2023-04-07T10:10:31.863Z,100.00
2023-04-07T10:12:59.465Z,100.00
2023-04-07T10:15:26.993Z,100.00
2023-04-07T10:17:56.909Z,100.00
2023-04-07T10:20:24.932Z,100.00
2023-04-07T10:22:53.903Z,100.00
2023-04-07T10:25:24.434Z,100.00
2023-04-07T10:27:59.589Z,100.00
2023-04-07T10:30:30.670Z,100.00
2023-04-07T10:32:58.983Z,100.00
2023-04-07T10:35:27.070Z,100.00
2023-04-07T10:38:10.925Z,100.00
2023-04-07T10:40:38.562Z,100.00
2023-04-07T10:43:09.597Z,100.00
2023-04-07T10:45:46.661Z,100.00
2023-04-07T10:48:16.021Z,100.00
2023-04-07T10:50:43.266Z,100.00
2023-04-07T10:53:16.291Z,100.00
2023-04-07T10:55:45.204Z,100.00
2023-04-07T10:58:15.713Z,100.00
2023-04-07T11:01:06.571Z,100.00
2023-04-07T11:03:36.115Z,100.00
2023-04-07T11:06:04.574Z,100.00
2023-04-07T11:08:48.256Z,100.00
2023-04-07T11:11:21.038Z,100.00
2023-04-07T11:13:51.346Z,100.00
2023-04-07T11:16:20.212Z,98.26
2023-04-07T11:18:48.102Z,96.20
2023-04-07T11:21:19.734Z,96.14
2023-04-07T11:23:48.046Z,94.17
2023-04-07T11:26:16.570Z,94.33
2023-04-07T11:28:49.186Z,91.57
2023-04-07T11:31:31.644Z,87.15
2023-04-07T11:34:01.936Z,89.92
2023-04-07T11:36:32.581Z,89.45
2023-04-07T11:39:00.836Z,75.98
2023-04-07T11:41:30.864Z,86.72
2023-04-07T11:44:09.683Z,80.10
2023-04-07T11:46:37.848Z,87.28
2023-04-07T11:49:14.040Z,88.81
2023-04-07T11:51:45.733Z,92.20
2023-04-07T11:54:13.350Z,91.48
2023-04-07T11:56:48.658Z,91.68
2023-04-07T11:59:24.368Z,90.75
2023-04-07T12:01:55.328Z,90.37
2023-04-07T12:04:24.752Z,91.44
2023-04-07T12:06:52.324Z,89.65
2023-04-07T12:09:32.436Z,86.21
2023-04-07T12:12:00.085Z,87.30
2023-04-07T12:14:28.059Z,86.47
2023-04-07T12:16:57.855Z,82.20
2023-04-07T12:19:29.565Z,78.76
2023-04-07T12:21:57.279Z,80.07
2023-04-07T12:24:24.961Z,81.25
2023-04-07T12:26:52.432Z,81.41
2023-04-07T12:29:20.413Z,82.44
2023-04-07T12:31:50.638Z,79.37
2023-04-07T12:34:18.814Z,67.08
2023-04-07T12:36:46.122Z,78.02
2023-04-07T12:39:13.475Z,77.18
2023-04-07T12:41:41.061Z,78.43
2023-04-07T12:44:08.423Z,75.79
2023-04-07T12:46:35.794Z,71.22
2023-04-07T12:49:03.511Z,72.77
2023-04-07T12:51:33.435Z,73.10
2023-04-07T12:54:01.005Z,73.66
2023-04-07T12:56:29.104Z,72.85
2023-04-07T12:58:56.877Z,74.53
2023-04-07T13:01:24.332Z,72.42
2023-04-07T13:03:52.314Z,71.44
2023-04-07T13:06:19.876Z,70.56
2023-04-07T13:08:47.285Z,69.02
2023-04-07T13:11:14.511Z,68.87
2023-04-07T13:13:41.799Z,69.58
2023-04-07T13:16:09.366Z,69.12
2023-04-07T13:18:36.871Z,68.38
2023-04-07T13:21:38.337Z,70.20
2023-04-07T13:23:53.456Z,68.14
2023-04-07T13:26:20.898Z,65.40
2023-04-07T13:28:48.656Z,64.04
2023-04-07T13:31:16.463Z,62.75
2023-04-07T13:33:44.295Z,62.94
2023-04-07T13:36:11.816Z,62.66
2023-04-07T13:38:39.091Z,63.26
2023-04-07T13:41:06.935Z,63.86
2023-04-07T13:43:34.428Z,62.50
2023-04-07T13:46:01.957Z,60.06
2023-04-07T13:48:29.233Z,59.09
2023-04-07T13:50:56.947Z,59.51
2023-04-07T13:53:24.947Z,60.64
2023-04-07T13:55:52.364Z,59.82
2023-04-07T13:58:19.594Z,57.49
2023-04-07T14:00:47.439Z,55.81
2023-04-07T14:03:15.667Z,55.53
2023-04-07T14:05:43.386Z,55.83
2023-04-07T14:08:10.768Z,55.04
2023-04-07T14:10:40.297Z,53.75
2023-04-07T14:13:07.690Z,53.44
2023-04-07T14:15:35.056Z,53.49
2023-04-07T14:18:02.991Z,53.39
2023-04-07T14:20:30.613Z,52.34
2023-04-07T14:22:58.041Z,53.36
2023-04-07T14:25:25.417Z,52.58
2023-04-07T14:27:52.818Z,52.00
2023-04-07T14:30:26.737Z,53.75
2023-04-07T14:32:54.038Z,53.34
2023-04-07T14:35:21.657Z,54.42
2023-04-07T14:37:49.036Z,55.67
2023-04-07T14:40:16.618Z,55.93
2023-04-07T14:42:43.843Z,56.19
2023-04-07T14:45:12.856Z,55.80
2023-04-07T14:47:40.431Z,55.56
2023-04-07T14:50:11.131Z,54.15
2023-04-07T14:52:38.369Z,51.92
2023-04-07T14:55:06.165Z,54.86
2023-04-07T14:57:33.679Z,54.91
2023-04-07T15:00:01.175Z,56.34
2023-04-07T15:02:29.382Z,56.01
2023-04-07T15:04:56.835Z,56.47
2023-04-07T15:07:24.075Z,55.82
2023-04-07T15:09:51.473Z,56.64
2023-04-07T15:12:19.287Z,57.04
2023-04-07T15:14:46.536Z,56.96
2023-04-07T15:17:13.767Z,55.55
2023-04-07T15:19:41.131Z,55.68
2023-04-07T15:22:11.687Z,55.13
2023-04-07T15:24:38.954Z,56.09
2023-04-07T15:27:06.788Z,54.83
2023-04-07T15:29:34.016Z,55.79
2023-04-07T15:32:01.416Z,55.93
2023-04-07T15:34:28.654Z,54.72
2023-04-07T15:36:56.014Z,54.54
2023-04-07T15:39:23.250Z,55.38
2023-04-07T15:41:50.530Z,55.66
2023-04-07T15:44:19.034Z,57.86
2023-04-07T15:46:46.359Z,57.17
2023-04-07T15:49:13.948Z,58.26
2023-04-07T15:51:41.252Z,56.91
2023-04-07T15:54:08.615Z,57.09
2023-04-07T15:56:35.956Z,57.15
2023-04-07T15:59:03.235Z,56.87
2023-04-07T16:01:30.920Z,56.86
2023-04-07T16:03:58.493Z,56.84
2023-04-07T16:06:26.320Z,56.45
2023-04-07T16:08:53.549Z,56.55
2023-04-07T16:11:21.512Z,57.24
2023-04-07T16:13:48.927Z,57.13
2023-04-07T16:16:16.478Z,58.48
2023-04-07T16:18:43.758Z,58.65
2023-04-07T16:21:11.308Z,58.93
2023-04-07T16:23:38.563Z,58.68
2023-04-07T16:26:05.770Z,58.68
2023-04-07T16:28:33.139Z,58.85
2023-04-07T16:31:02.630Z,58.37
2023-04-07T16:33:30.027Z,58.01
2023-04-07T16:35:57.378Z,57.46
2023-04-07T16:38:24.814Z,57.44
2023-04-07T16:41:03.364Z,58.73
2023-04-07T16:43:31.486Z,59.12
2023-04-07T16:46:00.183Z,59.65
2023-04-07T16:48:27.635Z,58.93
2023-04-07T16:50:54.886Z,58.24
2023-04-07T16:53:22.256Z,58.40
2023-04-07T16:55:49.511Z,57.81
2023-04-07T16:58:19.076Z,58.72
2023-04-07T17:00:46.542Z,60.59
2023-04-07T17:03:15.423Z,60.21
2023-04-07T17:05:44.709Z,61.30
2023-04-07T17:08:12.230Z,61.08
2023-04-07T17:10:39.410Z,60.64
2023-04-07T17:13:06.651Z,59.96
2023-04-07T17:15:38.240Z,60.55
2023-04-07T17:18:06.081Z,62.40
2023-04-07T17:20:33.415Z,62.83
2023-04-07T17:23:00.913Z,64.12
2023-04-07T17:25:28.078Z,65.30
2023-04-07T17:27:55.519Z,66.75
2023-04-07T17:30:23.052Z,66.62
2023-04-07T17:32:53.724Z,67.06
2023-04-07T17:35:21.588Z,67.44
2023-04-07T17:37:49.529Z,67.71
2023-04-07T17:40:16.846Z,68.61
2023-04-07T17:42:44.816Z,70.15
2023-04-07T17:45:12.682Z,71.89
2023-04-07T17:47:42.618Z,73.06
2023-04-07T17:50:10.739Z,74.44
2023-04-07T17:52:38.022Z,74.43
2023-04-07T17:55:06.573Z,74.12
2023-04-07T17:57:36.100Z,75.31
2023-04-07T18:00:05.140Z,75.39
2023-04-07T18:02:40.767Z,75.81
2023-04-07T18:05:08.849Z,76.80
2023-04-07T18:07:36.414Z,76.78
2023-04-07T18:10:04.046Z,76.32
2023-04-07T18:12:31.994Z,76.59
2023-04-07T18:14:59.347Z,76.46
2023-04-07T18:17:27.322Z,76.60
2023-04-07T18:19:54.755Z,76.23
2023-04-07T18:22:22.654Z,75.95
2023-04-07T18:24:51.615Z,75.92
2023-04-07T18:27:19.351Z,75.24
2023-04-07T18:29:46.568Z,75.58
2023-04-07T18:32:13.753Z,75.24
2023-04-07T18:34:41.295Z,75.61
2023-04-07T18:37:08.543Z,75.85
2023-04-07T18:39:35.922Z,75.91
2023-04-07T18:42:03.340Z,76.42
2023-04-07T18:44:30.654Z,76.72
2023-04-07T18:46:58.154Z,77.07
2023-04-07T18:49:28.302Z,77.33
2023-04-07T18:51:55.944Z,77.38
2023-04-07T18:54:24.270Z,78.15
2023-04-07T18:56:52.471Z,78.66
2023-04-07T18:59:19.639Z,79.36
2023-04-07T19:01:47.155Z,78.80
2023-04-07T19:04:15.733Z,79.39
2023-04-07T19:06:43.008Z,79.68
2023-04-07T19:09:10.410Z,79.34
2023-04-07T19:11:37.682Z,80.24
2023-04-07T19:14:05.952Z,80.92
2023-04-07T19:16:34.473Z,81.11
2023-04-07T19:19:03.020Z,81.35
2023-04-07T19:21:31.181Z,81.49
2023-04-07T19:23:59.473Z,81.49
2023-04-07T19:26:28.007Z,81.62
2023-04-07T19:28:57.695Z,82.10
2023-04-07T19:31:25.524Z,82.91
2023-04-07T19:33:52.745Z,83.04
2023-04-07T19:36:20.018Z,82.94
2023-04-07T19:38:47.351Z,83.61
2023-04-07T19:41:14.514Z,83.62
2023-04-07T19:43:42.803Z,84.18
2023-04-07T19:46:10.206Z,83.70
2023-04-07T19:48:40.058Z,83.62
2023-04-07T19:51:08.035Z,83.67
2023-04-07T19:53:35.538Z,83.94
2023-04-07T19:56:04.803Z,84.41
2023-04-07T19:58:36.019Z,84.80
2023-04-07T20:01:04.698Z,84.89
2023-04-07T20:03:32.196Z,84.00
2023-04-07T20:05:59.876Z,84.60
2023-04-07T20:08:27.294Z,83.76
2023-04-07T20:10:54.548Z,83.48
2023-04-07T20:13:23.387Z,83.29
2023-04-07T20:15:50.682Z,82.67
2023-04-07T20:18:18.693Z,83.43
2023-04-07T20:20:46.335Z,83.07
2023-04-07T20:23:15.962Z,83.29
2023-04-07T20:25:43.287Z,82.97
2023-04-07T20:28:10.625Z,82.82
2023-04-07T20:30:37.937Z,82.43
2023-04-07T20:33:05.254Z,82.48
2023-04-07T20:35:32.794Z,82.02
2023-04-07T20:38:00.277Z,82.07
2023-04-07T20:40:28.048Z,82.67
2023-04-07T20:42:55.474Z,83.21
2023-04-07T20:45:23.212Z,83.24
2023-04-07T20:47:51.329Z,84.01
2023-04-07T20:50:18.699Z,83.92
2023-04-07T20:52:45.903Z,84.34
2023-04-07T20:55:13.292Z,84.27
2023-04-07T20:57:41.696Z,84.50
2023-04-07T21:00:12.572Z,84.98
2023-04-07T21:02:39.986Z,85.26
2023-04-07T21:05:07.747Z,85.84
2023-04-07T21:07:35.021Z,86.50
2023-04-07T21:10:03.197Z,86.65
2023-04-07T21:12:30.714Z,87.36
2023-04-07T21:14:58.208Z,88.06
2023-04-07T21:17:25.588Z,88.72
2023-04-07T21:19:52.849Z,89.04
2023-04-07T21:22:20.618Z,89.79
2023-04-07T21:24:47.904Z,89.99
2023-04-07T21:27:16.901Z,91.26
2023-04-07T21:29:44.219Z,92.36
2023-04-07T21:32:12.222Z,92.86
2023-04-07T21:34:40.087Z,93.63
2023-04-07T21:37:10.436Z,94.96
2023-04-07T21:39:37.747Z,94.79
2023-04-07T21:42:05.132Z,95.64
2023-04-07T21:44:32.629Z,96.05
2023-04-07T21:46:59.983Z,97.18
2023-04-07T21:49:27.744Z,97.90
2023-04-07T21:51:55.372Z,99.00
2023-04-07T21:54:23.176Z,99.83
2023-04-07T21:56:51.611Z,100.00
2023-04-07T21:59:19.015Z,100.00
2023-04-07T22:01:47.150Z,100.00
2023-04-07T22:04:14.850Z,100.00
2023-04-07T22:06:42.310Z,100.00
2023-04-07T22:09:09.933Z,100.00
2023-04-07T22:11:37.451Z,100.00
2023-04-07T22:14:05.738Z,100.00
2023-04-07T22:16:33.401Z,100.00
2023-04-07T22:19:01.105Z,100.00
2023-04-07T22:21:28.697Z,100.00
2023-04-07T22:23:56.237Z,100.00
2023-04-07T22:26:23.665Z,100.00
2023-04-07T22:28:51.286Z,100.00
2023-04-07T22:31:18.846Z,100.00
2023-04-07T22:33:46.432Z,100.00
2023-04-07T22:36:13.695Z,100.00
2023-04-07T22:38:40.990Z,100.00
2023-04-07T22:41:08.297Z,100.00
2023-04-07T22:43:35.667Z,100.00
2023-04-07T22:46:03.096Z,100.00
2023-04-07T22:48:30.562Z,100.00
2023-04-07T22:50:57.921Z,100.00
2023-04-07T22:53:25.604Z,100.00
2023-04-07T22:55:53.228Z,100.00
2023-04-07T22:58:20.834Z,100.00
2023-04-07T23:00:48.104Z,100.00
2023-04-07T23:03:15.964Z,100.00
2023-04-07T23:05:43.282Z,100.00
2023-04-07T23:08:10.561Z,100.00
2023-04-07T23:10:38.454Z,100.00
2023-04-07T23:13:05.914Z,100.00
2023-04-07T23:15:36.036Z,100.00
2023-04-07T23:18:03.482Z,100.00
2023-04-07T23:20:30.768Z,100.00
2023-04-07T23:22:58.083Z,100.00
2023-04-07T23:25:25.309Z,100.00
2023-04-07T23:27:52.512Z,100.00
2023-04-07T23:30:19.935Z,100.00
2023-04-07T23:32:47.251Z,100.00
2023-04-07T23:35:14.441Z,100.00
2023-04-07T23:37:42.506Z,100.00
2023-04-07T23:40:10.507Z,100.00
2023-04-07T23:42:37.762Z,100.00
2023-04-07T23:45:05.837Z,100.00
2023-04-07T23:47:33.077Z,100.00
2023-04-07T23:50:00.541Z,100.00
2023-04-07T23:52:28.193Z,100.00
2023-04-07T23:54:55.746Z,100.00
2023-04-07T23:57:23.286Z,100.00
2023-04-07T23:59:50.855Z,100.00
